Stations météo

Publicité
Toulon Arsenal, France (7660): Température de l'air & dewpoint: 15.10.2019 04:00:00 - 21.10.2019 04:00:00 (CEST)Toulon Arsenal, France (7660): Vitesse du vent & gusts: 15.10.2019 04:00:00 - 21.10.2019 04:00:00 (CEST)Toulon Arsenal, France (7660): Direction du vent: 15.10.2019 04:00:00 - 21.10.2019 04:00:00 (CEST)Toulon Arsenal, France (7660): Quantités de précipitations: 15.10.2019 04:00:00 - 21.10.2019 04:00:00 (CEST)
Date & Time tt [°C] td [°C] ff [km/h] ff [knt] fx [km/h] fx [knt] dd rr [mm]
21.10.2019 04:00:00 - - - - - - - -
21.10.2019 03:00:00 17,9 17,1 4 2 9 5 WNW 2,0
21.10.2019 02:00:00 18,2 17,6 5 3 13 7 E -
21.10.2019 01:00:00 18,1 17,5 5 3 35 19 ENE 10,0
21.10.2019 00:00:00 19,5 18,3 2 1 28 15 NNW 2,0
20.10.2019 23:00:00 20,2 18,0 18 10 37 20 E 0,0
20.10.2019 22:00:00 20,6 18,9 15 8 28 15 E 0,0
20.10.2019 21:00:00 20,5 18,8 15 8 28 15 E 0,4
20.10.2019 20:00:00 20,4 18,7 13 7 28 15 E -
20.10.2019 19:00:00 20,2 18,7 4 2 16 9 NE 0,4
20.10.2019 18:00:00 21,3 18,5 9 5 41 22 E 0,4
20.10.2019 17:00:00 21,6 18,0 18 10 35 19 E 0,6
20.10.2019 16:00:00 22,4 18,0 13 7 29 16 E 0,0
20.10.2019 15:00:00 22,6 17,7 16 9 50 27 E 0,0
20.10.2019 14:00:00 22,9 17,4 18 10 48 26 E -
20.10.2019 13:00:00 23,3 16,3 21 11 54 29 ESE 0,0
20.10.2019 12:00:00 23,7 15,2 22 12 42 23 E 0,0
20.10.2019 11:00:00 22,1 15,9 16 9 35 19 E 0,0
20.10.2019 10:00:00 21,4 15,5 16 9 41 22 E 0,0
20.10.2019 09:00:00 21,0 15,8 21 11 44 24 E 0,0
20.10.2019 08:00:00 20,7 16,3 22 12 41 22 E -
20.10.2019 07:00:00 20,7 16,3 22 12 50 27 E 0,0
20.10.2019 06:00:00 20,7 16,1 21 11 44 24 E 0,0
20.10.2019 05:00:00 20,7 15,7 22 12 50 27 E 0,2
20.10.2019 04:00:00 20,9 17,3 18 10 42 23 E 0,0
20.10.2019 03:00:00 20,5 17,5 16 9 37 20 E 0,0
20.10.2019 02:00:00 20,6 17,6 16 9 41 22 E -
20.10.2019 01:00:00 20,4 18,2 15 8 37 20 ESE 0,0
20.10.2019 00:00:00 20,3 18,6 16 9 46 25 SE 0,0
19.10.2019 23:00:00 20,4 18,9 15 8 37 20 SE 0,0
19.10.2019 22:00:00 20,6 18,9 22 12 46 25 SE 0,0
19.10.2019 21:00:00 20,7 19,0 24 13 44 24 SE 0,0
19.10.2019 20:00:00 20,7 19,0 21 11 34 18 SE -
19.10.2019 19:00:00 20,9 18,8 18 10 34 18 SE 0,0
19.10.2019 18:00:00 21,1 18,7 13 7 24 13 SE 0,0
19.10.2019 17:00:00 21,4 18,8 11 6 26 14 SE 0,0
19.10.2019 16:00:00 21,3 18,9 15 8 29 16 SE 0,0
19.10.2019 15:00:00 21,6 18,8 9 5 26 14 SE 0,0
19.10.2019 14:00:00 22,1 18,9 9 5 35 19 SSE -
19.10.2019 13:00:00 22,3 18,9 15 8 31 17 SSE 0,0
19.10.2019 12:00:00 21,5 18,9 13 7 26 14 SSE 0,0
19.10.2019 11:00:00 21,3 19,0 15 8 31 17 SSE 0,0
19.10.2019 10:00:00 20,8 18,9 16 9 34 18 SSE 0,0
19.10.2019 09:00:00 20,7 18,8 16 9 29 16 SSE 0,0
19.10.2019 08:00:00 20,4 18,5 15 8 34 18 SSE -
19.10.2019 07:00:00 20,4 18,5 13 7 37 20 SE 0,2
19.10.2019 06:00:00 20,5 18,3 13 7 34 18 SSE 0,0
19.10.2019 05:00:00 20,4 18,3 11 6 22 12 SSE 0,0
19.10.2019 04:00:00 20,5 18,1 9 5 28 15 SSE 0,0
19.10.2019 03:00:00 20,4 18,2 8 4 24 13 SE 0,0
19.10.2019 02:00:00 20,5 18,3 11 6 28 15 SE -
19.10.2019 01:00:00 20,4 18,2 16 9 28 15 SE 0,0
19.10.2019 00:00:00 20,4 18,5 11 6 22 12 SE 0,0
18.10.2019 23:00:00 20,2 18,5 8 4 13 7 E 0,0
18.10.2019 22:00:00 20,2 18,5 8 4 13 7 E 0,0
18.10.2019 21:00:00 20,2 18,3 8 4 13 7 SE 0,0
18.10.2019 20:00:00 20,5 18,3 8 4 24 13 SSE -
18.10.2019 19:00:00 20,3 18,4 5 3 13 7 SE 0,0
18.10.2019 18:00:00 20,6 18,4 4 2 13 7 SE 0,0
18.10.2019 17:00:00 21,1 18,3 8 4 16 9 SE 0,0
18.10.2019 16:00:00 20,9 18,5 8 4 15 8 SE 0,0
18.10.2019 15:00:00 20,9 18,3 9 5 21 11 SE 0,0
18.10.2019 14:00:00 20,8 18,0 13 7 24 13 SE -
18.10.2019 13:00:00 20,7 17,7 9 5 22 12 SE 0,0
18.10.2019 12:00:00 19,8 17,2 11 6 29 16 E 0,8
18.10.2019 11:00:00 19,1 16,9 13 7 24 13 E 0,4
18.10.2019 10:00:00 18,9 16,9 8 4 31 17 E 0,2
18.10.2019 09:00:00 19,2 16,4 11 6 22 12 E 0,0
18.10.2019 08:00:00 18,8 16,4 8 4 21 11 E -
18.10.2019 07:00:00 18,8 16,2 11 6 21 11 E 0,0
18.10.2019 06:00:00 18,5 16,5 5 3 15 8 E 0,0
18.10.2019 05:00:00 18,6 16,4 8 4 16 9 E 0,0
18.10.2019 04:00:00 19,2 16,4 8 4 13 7 E 0,0
18.10.2019 03:00:00 19,0 16,4 8 4 16 9 E 0,0
18.10.2019 02:00:00 19,0 16,2 5 3 16 9 ENE -
18.10.2019 01:00:00 19,2 16,1 8 4 22 12 E 0,0
18.10.2019 00:00:00 19,7 15,8 5 3 15 8 E 0,0
17.10.2019 23:00:00 19,6 15,7 9 5 18 10 E 0,0
17.10.2019 22:00:00 19,8 15,9 5 3 13 7 E 0,0
17.10.2019 21:00:00 20,0 16,2 9 5 21 11 E 0,0
17.10.2019 20:00:00 20,1 16,5 9 5 18 10 E -
17.10.2019 19:00:00 20,4 16,4 9 5 18 10 ESE 0,0
17.10.2019 18:00:00 20,9 16,3 9 5 21 11 SE 0,0
17.10.2019 17:00:00 21,6 15,7 9 5 21 11 SE 0,0
17.10.2019 16:00:00 21,9 15,7 13 7 24 13 SE 0,0
17.10.2019 15:00:00 21,4 15,9 15 8 28 15 SE 0,0
17.10.2019 14:00:00 21,7 15,8 13 7 29 16 SE -
17.10.2019 13:00:00 21,7 16,0 13 7 28 15 SE 0,0
17.10.2019 12:00:00 20,4 15,6 11 6 24 13 E 0,0
17.10.2019 11:00:00 19,4 14,9 11 6 18 10 E 0,0
17.10.2019 10:00:00 18,7 14,6 9 5 18 10 E 0,0
17.10.2019 09:00:00 17,9 14,2 8 4 16 9 E 0,0
17.10.2019 08:00:00 16,6 13,9 4 2 11 6 NE -
17.10.2019 07:00:00 16,8 13,9 4 2 13 7 NE 0,0
17.10.2019 06:00:00 17,9 14,0 5 3 13 7 NE 0,0
17.10.2019 05:00:00 18,0 14,1 8 4 15 8 NNE 0,0
17.10.2019 04:00:00 18,0 14,1 8 4 15 8 ENE 0,0
17.10.2019 03:00:00 17,6 13,9 4 2 11 6 NNE 0,0
17.10.2019 02:00:00 18,1 13,8 8 4 13 7 ENE -
17.10.2019 01:00:00 17,5 13,4 4 2 11 6 NNE 0,0
17.10.2019 00:00:00 18,3 13,4 5 3 11 6 NNE 0,0
16.10.2019 23:00:00 18,1 13,0 5 3 13 7 NE 0,0
16.10.2019 22:00:00 17,6 12,9 4 2 11 6 NNE 0,0
16.10.2019 21:00:00 18,0 12,4 4 2 9 5 N 0,0
16.10.2019 20:00:00 17,7 13,6 2 1 9 5 ENE -
16.10.2019 19:00:00 19,0 13,4 5 3 13 7 SSE 0,0
16.10.2019 18:00:00 19,6 12,4 9 5 21 11 S 0,0
16.10.2019 17:00:00 21,7 10,8 9 5 22 12 WSW 0,0
16.10.2019 16:00:00 21,9 11,6 11 6 21 11 SW 0,0
16.10.2019 15:00:00 21,8 10,6 13 7 26 14 WSW 0,0
16.10.2019 14:00:00 21,1 10,3 16 9 34 18 W -
16.10.2019 13:00:00 20,9 8,2 18 10 35 19 W 0,0
16.10.2019 12:00:00 20,3 6,2 16 9 29 16 W 0,0
16.10.2019 11:00:00 19,6 6,3 16 9 35 19 W 0,0
16.10.2019 10:00:00 17,7 7,1 15 8 29 16 W 0,0
16.10.2019 09:00:00 16,7 5,9 15 8 34 18 W 0,0
16.10.2019 08:00:00 15,9 5,2 18 10 37 20 W -
16.10.2019 07:00:00 15,6 5,2 15 8 35 19 WNW 0,0
16.10.2019 06:00:00 14,7 6,3 13 7 26 14 W 0,0
16.10.2019 05:00:00 14,8 6,9 13 7 35 19 W 0,0
16.10.2019 04:00:00 15,4 6,9 16 9 35 19 W 0,0
16.10.2019 03:00:00 15,2 6,7 13 7 26 14 W 0,0
16.10.2019 02:00:00 15,3 6,3 13 7 34 18 WNW -
16.10.2019 01:00:00 15,8 6,5 15 8 35 19 W 0,0
16.10.2019 00:00:00 16,2 6,3 18 10 44 24 WNW 0,0
15.10.2019 23:00:00 16,6 7,0 21 11 44 24 W 0,0
15.10.2019 22:00:00 16,8 7,4 16 9 48 26 W 0,0
15.10.2019 21:00:00 17,0 8,2 13 7 34 18 W 0,0
15.10.2019 20:00:00 17,5 8,9 13 7 35 19 W -
15.10.2019 19:00:00 18,5 9,0 18 10 41 22 W 0,0
15.10.2019 18:00:00 20,1 9,3 18 10 46 25 W 0,0
15.10.2019 17:00:00 19,8 10,5 22 12 50 27 W 0,0
15.10.2019 16:00:00 19,7 10,4 26 14 48 26 W 0,0
15.10.2019 15:00:00 20,2 11,1 22 12 46 25 W 0,0
15.10.2019 14:00:00 20,8 12,7 16 9 39 21 W -
15.10.2019 13:00:00 20,0 12,2 18 10 42 23 W 0,0
15.10.2019 12:00:00 18,9 14,2 16 9 31 17 W 0,0
15.10.2019 11:00:00 18,2 15,8 18 10 34 18 W 0,0
15.10.2019 10:00:00 19,1 16,9 13 7 28 15 W 2,0
15.10.2019 09:00:00 17,7 16,7 5 3 16 9 WNW 1,0
15.10.2019 08:00:00 19,0 17,1 11 6 41 22 WSW -
15.10.2019 07:00:00 20,9 19,7 16 9 39 21 SE 0,0
15.10.2019 06:00:00 20,9 19,6 18 10 44 24 SE 0,0
15.10.2019 05:00:00 20,9 19,2 13 7 37 20 E 0,0
15.10.2019 04:00:00 20,6 18,7 18 10 44 24 E 0,4

tt = Température de l'air
td = dewpoint
ff = Vitesse du vent
fx = gusts
dd = Direction du vent
rr = Quantités de précipitations

stations d'obs. à proximité